Tips voor optimaal zoeken

Zoek op trefwoorden of stel een vraag
Typ een trefwoord zoals beurskoers, of stel een vraag zoals Wat is het laatste nieuws over Amerika?.
Exacte zinnen zoeken
Zet aanhalingstekens om een exacte woordcombinatie te vinden, bijvoorbeeld "Johan Cruijff ArenA".
Resultaten filteren
Na het zoeken kunt u filteren op publicatieperiode, bron, onderwerp en auteur.
Zoekopdrachten volgen
Wilt u updates ontvangen over een onderwerp? Via "Mijn nieuws" kunt u een term volgen.
Close sub menu
S&P
S&P 500 Index 7.711,760 -19,23 -0,25% 22:20
Stijgers 1 dag
Dalers 1 dag
Indices 1 dag
Workday Inc +5,8%
Dominos Pizza Inc +5,4%
Lululemon Athletica Inc +5,1%
ServiceNow Inc +4,5%
SLB Limited +4,2%
Amazon.com Inc +4,0%
Charter Communications Inc +3,6%
Bunge Global SA +3,5%
Expedia Group Inc +3,3%
eBay Inc +3,3%
Zoetis Inc +3,1%
Archer Daniels Midland Company +3,1%
PayPal Holdings Inc -12,7%
Marvell Technology Inc -10,3%
PG&E Corporation -7,5%
Generac Holding Inc -6,8%
Lumentum Holdings Inc -6,4%
Coinbase Global Inc -6,3%
Comfort Systems USA Inc -6,0%
Coherent Corp -5,5%
Ciena Corporation -5,4%
Lam Research Corporation -5,2%
Robinhood Markets Inc -5,0%
Qnity Electronics Inc -4,9%
AEX* 1.111,17-0,1%
Midkap* 1.126,89-0,2%
AMS Next 20®* 1.600,71-0,3%
FTSE100 10.824,26--
Dow Jones 53.559,990,0%
NASDAQ 26.402,4229-0,5%
S&P500 7.711,76-0,2%
S&P Future 7.714,25-0,1%
BEL20** 5.869,08+0,5%
CAC 40** 8.401,18+1,0%
DAX 26.415,28-0,6%
* real time    ** slotkoers
AandelenKoersVorige+/-+/- %HoogLaagVolumeTijd
3M Company 174,34 178,83 -4,49 -2,5% -- -- 271 22:15
Abbott Laboratories 112,47 111,59 +0,88 +0,8% -- -- 757 22:15
AbbVie Inc 255,48 258,15 -2,67 -1,0% -- -- 1.104 22:15
Accenture PLC 189,61 187,38 +2,23 +1,2% -- -- 521 22:15
Adobe Inc 291,52 289,15 +2,37 +0,8% -- -- 8.359 22:15
Advanced Micro Devices Inc 465,58 476,67 -11,09 -2,3% -- -- 70.417 22:15
AES Corp 14,73 14,75 -0,02 -0,1% -- -- 167 22:00
AFLAC Inc 116,52 116,58 -0,06 -0,1% -- -- 47 22:15
Agilent Technologies 153,84 157,69 -3,85 -2,4% -- -- 11 22:15
Air Products and Chemicals Inc 308,09 305,47 +2,62 +0,9% -- -- 18 22:15
Airbnb Inc 189,43 184,40 +5,03 +2,7% -- -- 3.390 22:15
Akamai Technologies Inc 107,47 111,24 -3,77 -3,4% -- -- 591 22:15
Albemarle Corporation 137,36 135,77 +1,59 +1,2% -- -- 3.162 22:15
Alexandria Real Estate Equities 51,57 52,28 -0,71 -1,4% -- -- 631 22:15
Align Technology Inc 157,58 158,84 -1,26 -0,8% -- -- 52 22:00
Allegion Plc 157,48 159,72 -2,24 -1,4% 160,90 156,37 1.202.014 22:00
Alliant Energy Corporation 68,03 68,21 -0,18 -0,3% -- -- 1 22:00
Allstate Corporation 260,58 257,62 +1,88 +0,7% -- -- 127 22:00
Alphabet Inc 342,88 337,71 +5,17 +1,5% -- -- 59.176 22:15
Alphabet Inc 346,59 340,65 +5,94 +1,7% -- -- 62.925 22:42
Altria Group Inc 68,65 67,67 +0,98 +1,4% -- -- 2.348 22:15
Amazon.com Inc 266,43 256,26 +10,17 +4,0% -- -- 129.039 22:15
Amcor Plc 46,67 46,52 +0,15 +0,3% -- -- 243 22:15
Ameren Corp 106,12 106,75 -0,63 -0,6% 107,42 105,84 1.094.599 22:15
American Electric Power Company 122,31 122,71 -0,40 -0,3% -- -- 399 22:15
American Express Company 333,20 334,16 -0,96 -0,3% -- -- 2.920 22:15
American International Group Inc 76,93 76,63 +0,30 +0,4% -- -- 25 22:15
American Tower Corporation 176,23 174,16 +2,07 +1,2% -- -- 22 22:15
American Water Works 138,30 136,69 +1,61 +1,2% -- -- 42 22:15
Ameriprise Financial Inc 559,32 555,77 +3,55 +0,6% 561,21 554,95 271.176 22:15
Ametek Inc 236,25 243,67 -7,42 -3,0% -- -- 235 22:15
Amgen Inc 432,42 436,99 -4,57 -1,0% -- -- 394 22:15
Amphenol Corp 157,74 161,38 -3,64 -2,3% -- -- 9.523 22:15
Analog Devices Inc 361,78 374,52 -12,74 -3,4% -- -- 6.656 22:15
AO Smith Corp 60,38 61,95 -1,57 -2,5% 62,99 59,50 1.811.607 22:00
Aon PLC 355,40 349,56 +5,84 +1,7% -- -- 94 22:15
APA Corporation 42,54 42,38 +0,16 +0,4% -- -- 2.673 22:15
Apollo Global Management Inc 135,04 133,44 +1,60 +1,2% -- -- 5 22:00
Apple Inc 319,70 314,58 +5,12 +1,6% -- -- 103.901 22:15
Applied Materials Inc 461,67 482,36 -20,69 -4,3% -- -- 22.291 22:26
Applovin Corporation 317,76 312,63 +5,13 +1,6% -- -- 9.977 22:31
Aptiv PLC 45,75 45,44 +0,31 +0,7% -- -- 264 22:00
Arch Capital Group Ltd 98,84 98,76 +0,08 +0,1% 99,83 98,08 3.990.833 22:00
Archer Daniels Midland Company 81,54 79,10 +2,44 +3,1% -- -- 2.452 22:15
Ares Management Corporation 142,53 142,41 +0,12 +0,1% -- -- 21 22:00
Arista Networks 195,38 201,09 -5,71 -2,8% -- -- 5.259 22:15
Arthur J Gallagher and Company 267,56 260,15 +7,41 +2,8% -- -- 39 22:00
Assurant Inc 285,65 285,41 -0,64 -0,2% 288,22 284,68 229.376 22:00
AT&T Inc 26,01 25,43 +0,58 +2,3% -- -- 5.840 22:15
Atmos Energy Corp 166,65 167,22 -0,57 -0,3% -- -- 50 22:00
Autodesk Inc 260,66 270,58 -9,92 -3,7% -- -- 311 22:15
Automatic Data Processing Inc 287,48 284,68 +2,80 +1,0% -- -- 51 22:15
AutoZone Inc 2.961,96 2.932,33 +29,63 +1,0% -- -- 33 22:15
Avery Dennison Corp 177,75 178,34 -0,59 -0,3% 181,24 176,60 775.430 22:00
Axon Enterprise Inc 600,73 611,20 -10,47 -1,7% -- -- 86 22:15
Baker Hughes Company 62,41 62,11 +0,30 +0,5% -- -- 651 22:15
Ball Corp 63,77 63,37 +0,40 +0,6% 64,34 63,31 1.361.075 22:00
Bank of America Corporation 62,32 61,17 +1,15 +1,9% -- -- 21.551 22:15
Bank of New York Mellon Corporation 162,50 162,24 +0,26 +0,2% -- -- 244 22:15
Baxter International Inc 26,13 25,93 +0,20 +0,8% 26,31 25,79 3.960.470 22:15
Becton Dickinson and Company 189,52 188,13 +1,39 +0,7% -- -- 221 22:15
Berkshire Hathaway Inc 505,00 503,70 +1,30 +0,3% -- -- 3.005 22:15
Best Buy Company 82,44 83,56 -1,12 -1,3% -- -- 203 22:00
Bio Techne Corporation 72,35 72,47 -0,12 -0,2% -- -- 43 22:00
Biogen Inc 218,50 221,50 -3,00 -1,4% -- -- 3 22:15
BlackRock Inc 1.164,48 1.167,57 -3,09 -0,3% -- -- 14 22:15
Blackstone Inc 142,39 143,64 -1,25 -0,9% -- -- 601 22:15
Block Inc 83,57 84,85 -1,28 -1,5% -- -- 2.753 22:15
Boeing Company 209,82 209,89 -0,07 0,0% -- -- 7.581 22:15
Booking Holdings Inc 205,63 202,56 +3,07 +1,5% -- -- 749 22:15
Boston Scientific Corporation 46,84 46,67 +0,17 +0,4% -- -- 7.488 22:15
Bristol Myers Squibb Co 66,58 66,95 -0,37 -0,6% -- -- 2.405 22:15
Broadcom Inc 368,79 371,54 -2,75 -0,7% -- -- 132.113 22:15
Broadridge Financial Solutions 183,64 183,08 +0,56 +0,3% -- -- 101 22:15
Brown and Brown Inc 73,31 71,39 +1,92 +2,7% -- -- 21 22:00
Brown Forman Corp 27,22 27,28 -0,06 -0,2% -- -- 125 22:00
Builders FirstSource Inc 67,72 67,21 +0,51 +0,8% -- -- 24 22:00
Bunge Global SA 115,48 111,57 +3,91 +3,5% -- -- 244 22:15
BXP Inc 69,32 69,97 -0,65 -0,9% -- -- 1 22:00
Cadence Design Systems Inc 340,39 347,55 -7,16 -2,1% -- -- 239 22:15
Camden Property Trust 106,35 105,79 +0,56 +0,5% 106,56 105,79 868.755 22:00
Capital One Financial Corporation 215,67 216,67 -1,00 -0,5% -- -- 154 22:15
Cardinal Health Inc 234,55 235,13 -0,58 -0,2% -- -- 156 22:15
Carnival Corporation Ltd 24,76 24,95 -0,19 -0,8% -- -- 14.646 22:15
Carrier Global Corporation 58,79 58,84 -0,05 -0,1% -- -- 17 22:15
Carvana Co 74,04 74,09 -0,05 -0,1% -- -- 1.941 22:15
Caseys General Stores Inc 755,47 763,38 -7,91 -1,0% -- -- 61 22:00
Caterpillar Inc 800,25 817,00 -16,75 -2,1% -- -- 7.254 22:15
Cboe Global Markets Inc 310,45 313,95 -4,36 -1,4% -- -- 9 22:00
CBRE Group Inc 150,82 147,22 +3,60 +2,4% 151,85 147,27 1.483.426 22:03
CDW Corporation 147,69 148,97 -1,28 -0,9% -- -- 146 22:15
Cencora Inc 322,03 321,23 +0,80 +0,2% -- -- 86 22:15
Centene Corp 64,75 65,33 -0,58 -0,9% -- -- 391 22:15
CenterPoint Energy Inc 39,24 39,29 -0,05 -0,1% -- -- 2 22:00
CF Industries Holdings Inc 125,79 125,71 +0,08 +0,1% -- -- 1.341 22:15
CH Robinson Worldwide Inc 150,39 151,14 -0,75 -0,5% -- -- 32 22:00
Charles River Laboratories International 291,50 296,41 -4,91 -1,7% 294,89 289,60 659.870 22:00
Charles Schwab Corporation 110,16 108,05 +2,11 +2,0% -- -- 126 22:15
Charter Communications Inc 153,62 148,32 +5,30 +3,6% -- -- 488 22:15
Chevron Corporation 201,86 199,77 +2,09 +1,0% -- -- 24.468 22:15
vorige 1 2 3 4 5 6 volgende 
Powered by

Schakel browser notificaties in

Schakel browser notificaties in om meldingen te ontvangen op dit apparaat.

Browser notificaties inschakelen

U heeft browser notificaties voor fd.nl eerder geweigerd. Ga naar browser instellingen en sta browser notificaties toe voor fd.nl. De precieze handelingen zijn afhankelijk van uw browser.

U volgt een onderwerp

Wanneer deze zoekterm in een artikel voorkomt, zult u deze terugvinden in Mijn nieuws onder ‘Eurobonds’.

Wilt u via de FD App meldingen ontvangen voor dit onderwerp?

Wilt u via de FD App meldingen ontvangen voor dit onderwerp?

Ons privacy statement is van toepassing.

Meldingen

Wanneer deze zoekterm in een artikel voorkomt, zult u deze terugvinden in Mijn nieuws onder ‘Eurobonds’.

Wilt u via de FD App meldingen ontvangen voor dit onderwerp?

Wilt u via de FD App meldingen ontvangen voor dit onderwerp?